KCMH/CMH METAR and TAF weather

Enter ICAO airport designator
Station Type Date Time Source
KCMH METAR 2018/07/21 22:51 UTC NOAA

KCMH 212251Z 23010KT 8SM -TSRA SCT022 BKN033CB OVC050 22/18 A2974 RMK AO2 LTG DSNT S RAB48 TSB28 SLP066 OCNL LTGICCC OHD TS OHD MOV NE P0000 T02170183


Station Type Date Time Source
KCMH Decoded METAR 2018/07/21 22:51 UTC NOAA

PORT COLUMBUS INTERNATIONAL AIRPORT, OH, United States (KCMH) 40-00N 82-53W 247M
Jul 21, 2018 - 06:51 PM EDT / 2018.07.21 2251 UTC
Wind: from the SW (230 degrees) at 12 MPH (10 KT):0
Visibility: 8 mile(s):0
Sky conditions: overcast
Weather: light rain with thunder; Cumulonimbus clouds, lightning observed
Precipitation last hour: A trace
Temperature: 71.1 F (21.7 C)
Dew Point: 64.9 F (18.3 C)
Relative Humidity: 81%
Pressure (altimeter): 29.74 in. Hg (1007 hPa)
ob: KCMH 212251Z 23010KT 8SM -TSRA SCT022 BKN033CB OVC050 22/18 A2974 RMK AO2 LTG DSNT S RAB48 TSB28 SLP066 OCNL LTGICCC OHD TS OHD MOV NE P0000 T02170183
cycle: 23

Station Type Date Time Source
KCMH TAF 2018/07/21 19:27 UTC NOAA

TAF
AMD KCMH 211925Z 2119/2218 17008KT P6SM -SHRA VCTS OVC035CB
TEMPO 2120/2124 3SM -TSRA BR OVC025CB
FM220000 21005KT P6SM -SHRA VCTS OVC035CB
FM220200 VRB03KT P6SM VCSH OVC025
FM220400 VRB03KT P6SM VCSH OVC015
FM220700 VRB03KT 5SM BR OVC006
FM221600 06007KT P6SM -SHRA OVC012


Example: see airport list